sensor_id;sensor_type;location;lat;lon;timestamp;pressure;altitude;pressure_sealevel;temperature;humidity
67345;BME280;54230;52.402;6.276;2023-11-19T00:00:00;100730.0;;;14.5;89.9
67345;BME280;54230;52.402;6.276;2023-11-19T00:05:00;100720.0;;;14.6;89.9
67345;BME280;54230;52.402;6.276;2023-11-19T00:10:00;100710.0;;;14.6;89.9
67345;BME280;54230;52.402;6.276;2023-11-19T00:15:00;100700.0;;;14.6;90.4
67345;BME280;54230;52.402;6.276;2023-11-19T00:20:00;100710.0;;;14.7;90.3
67345;BME280;54230;52.402;6.276;2023-11-19T00:25:00;100700.0;;;14.8;90.1
67345;BME280;54230;52.402;6.276;2023-11-19T00:30:00;100710.0;;;14.8;90.0
67345;BME280;54230;52.402;6.276;2023-11-19T00:35:00;100700.0;;;14.9;89.9
67345;BME280;54230;52.402;6.276;2023-11-19T00:40:00;100700.0;;;14.9;89.9
67345;BME280;54230;52.402;6.276;2023-11-19T00:45:00;100680.0;;;14.9;90.1
67345;BME280;54230;52.402;6.276;2023-11-19T00:50:00;100680.0;;;15.0;90.0
67345;BME280;54230;52.402;6.276;2023-11-19T00:55:00;100670.0;;;15.0;90.3
67345;BME280;54230;52.402;6.276;2023-11-19T01:00:00;100650.0;;;15.0;90.2
67345;BME280;54230;52.402;6.276;2023-11-19T01:05:00;100620.0;;;14.9;90.0
67345;BME280;54230;52.402;6.276;2023-11-19T01:10:00;100600.0;;;15.0;89.8
67345;BME280;54230;52.402;6.276;2023-11-19T01:15:00;100650.0;;;15.0;89.8
67345;BME280;54230;52.402;6.276;2023-11-19T01:20:00;100660.0;;;15.0;89.8
67345;BME280;54230;52.402;6.276;2023-11-19T01:25:00;100660.0;;;15.0;90.0
67345;BME280;54230;52.402;6.276;2023-11-19T01:30:00;100660.0;;;15.1;89.9
67345;BME280;54230;52.402;6.276;2023-11-19T01:35:00;100650.0;;;15.0;90.0
67345;BME280;54230;52.402;6.276;2023-11-19T01:40:00;100650.0;;;15.0;89.9
67345;BME280;54230;52.402;6.276;2023-11-19T01:45:01;100640.0;;;15.0;90.0
67345;BME280;54230;52.402;6.276;2023-11-19T01:50:01;100630.0;;;15.1;89.6
67345;BME280;54230;52.402;6.276;2023-11-19T01:55:01;100620.0;;;15.0;89.4
67345;BME280;54230;52.402;6.276;2023-11-19T02:00:00;100620.0;;;14.9;89.4
67345;BME280;54230;52.402;6.276;2023-11-19T02:05:00;100620.0;;;14.9;89.4
67345;BME280;54230;52.402;6.276;2023-11-19T02:10:00;100610.0;;;14.9;89.1
67345;BME280;54230;52.402;6.276;2023-11-19T02:15:00;100600.0;;;14.8;89.0
67345;BME280;54230;52.402;6.276;2023-11-19T02:20:00;100610.0;;;14.8;88.7
67345;BME280;54230;52.402;6.276;2023-11-19T02:25:04;100610.0;;;14.7;88.5
67345;BME280;54230;52.402;6.276;2023-11-19T02:30:01;100620.0;;;14.7;88.6
67345;BME280;54230;52.402;6.276;2023-11-19T02:35:00;100620.0;;;14.7;88.7
67345;BME280;54230;52.402;6.276;2023-11-19T02:40:00;100610.0;;;14.8;88.5
67345;BME280;54230;52.402;6.276;2023-11-19T02:45:00;100620.0;;;14.9;88.0
67345;BME280;54230;52.402;6.276;2023-11-19T02:50:00;100630.0;;;14.9;87.5
67345;BME280;54230;52.402;6.276;2023-11-19T02:55:00;100640.0;;;14.9;87.5
67345;BME280;54230;52.402;6.276;2023-11-19T03:00:00;100620.0;;;14.9;87.3
67345;BME280;54230;52.402;6.276;2023-11-19T03:05:00;100610.0;;;14.7;86.6
67345;BME280;54230;52.402;6.276;2023-11-19T03:10:00;100600.0;;;14.5;86.5
67345;BME280;54230;52.402;6.276;2023-11-19T03:15:00;100610.0;;;14.4;86.5
67345;BME280;54230;52.402;6.276;2023-11-19T03:20:00;100630.0;;;14.6;86.3
67345;BME280;54230;52.402;6.276;2023-11-19T03:25:00;100630.0;;;14.6;85.9
67345;BME280;54230;52.402;6.276;2023-11-19T03:30:00;100630.0;;;14.6;85.7
67345;BME280;54230;52.402;6.276;2023-11-19T03:35:00;100630.0;;;14.6;84.9
67345;BME280;54230;52.402;6.276;2023-11-19T03:40:00;100630.0;;;14.6;84.7
67345;BME280;54230;52.402;6.276;2023-11-19T03:45:00;100640.0;;;14.6;84.2
67345;BME280;54230;52.402;6.276;2023-11-19T03:50:00;100630.0;;;14.6;83.7
67345;BME280;54230;52.402;6.276;2023-11-19T03:55:00;100620.0;;;14.5;83.1
67345;BME280;54230;52.402;6.276;2023-11-19T04:00:01;100610.0;;;14.4;82.8
67345;BME280;54230;52.402;6.276;2023-11-19T04:05:00;100600.0;;;14.2;82.4
67345;BME280;54230;52.402;6.276;2023-11-19T04:10:00;100590.0;;;14.0;82.4
67345;BME280;54230;52.402;6.276;2023-11-19T04:15:00;100590.0;;;13.9;82.5
67345;BME280;54230;52.402;6.276;2023-11-19T04:20:00;100600.0;;;13.9;82.4
67345;BME280;54230;52.402;6.276;2023-11-19T04:25:00;100600.0;;;13.8;82.6
67345;BME280;54230;52.402;6.276;2023-11-19T04:30:00;100600.0;;;13.8;82.5
67345;BME280;54230;52.402;6.276;2023-11-19T04:35:00;100620.0;;;13.7;82.8
67345;BME280;54230;52.402;6.276;2023-11-19T04:40:00;100620.0;;;13.7;82.7
67345;BME280;54230;52.402;6.276;2023-11-19T04:45:00;100640.0;;;13.8;82.7
67345;BME280;54230;52.402;6.276;2023-11-19T04:50:00;100640.0;;;13.9;82.6
67345;BME280;54230;52.402;6.276;2023-11-19T04:55:00;100630.0;;;13.9;82.4
67345;BME280;54230;52.402;6.276;2023-11-19T05:00:00;100630.0;;;13.9;82.0
67345;BME280;54230;52.402;6.276;2023-11-19T05:05:00;100620.0;;;13.9;81.9
67345;BME280;54230;52.402;6.276;2023-11-19T05:10:00;100620.0;;;13.9;81.9
67345;BME280;54230;52.402;6.276;2023-11-19T05:15:00;100630.0;;;14.0;81.6
67345;BME280;54230;52.402;6.276;2023-11-19T05:20:00;100620.0;;;14.0;81.2
67345;BME280;54230;52.402;6.276;2023-11-19T05:25:00;100630.0;;;14.0;81.0
67345;BME280;54230;52.402;6.276;2023-11-19T05:30:00;100630.0;;;14.1;80.7
67345;BME280;54230;52.402;6.276;2023-11-19T05:35:00;100640.0;;;14.0;80.5
67345;BME280;54230;52.402;6.276;2023-11-19T05:40:00;100640.0;;;14.0;80.5
67345;BME280;54230;52.402;6.276;2023-11-19T05:45:00;100640.0;;;14.0;80.1
67345;BME280;54230;52.402;6.276;2023-11-19T05:50:00;100640.0;;;14.0;79.9
67345;BME280;54230;52.402;6.276;2023-11-19T05:55:00;100650.0;;;13.9;79.8
67345;BME280;54230;52.402;6.276;2023-11-19T06:00:00;100650.0;;;13.9;79.8
67345;BME280;54230;52.402;6.276;2023-11-19T06:05:00;100640.0;;;13.9;79.8
67345;BME280;54230;52.402;6.276;2023-11-19T06:10:00;100650.0;;;13.8;79.7
67345;BME280;54230;52.402;6.276;2023-11-19T06:15:00;100640.0;;;13.7;79.4
67345;BME280;54230;52.402;6.276;2023-11-19T06:20:00;100650.0;;;13.6;79.8
67345;BME280;54230;52.402;6.276;2023-11-19T06:25:00;100650.0;;;13.7;80.1
67345;BME280;54230;52.402;6.276;2023-11-19T06:30:00;100660.0;;;13.7;79.9
67345;BME280;54230;52.402;6.276;2023-11-19T06:35:00;100640.0;;;13.8;79.7
67345;BME280;54230;52.402;6.276;2023-11-19T06:40:00;100640.0;;;13.7;79.5
67345;BME280;54230;52.402;6.276;2023-11-19T06:45:00;100660.0;;;13.7;79.3
67345;BME280;54230;52.402;6.276;2023-11-19T06:50:00;100650.0;;;13.7;79.3
67345;BME280;54230;52.402;6.276;2023-11-19T06:55:00;100660.0;;;13.7;79.0
67345;BME280;54230;52.402;6.276;2023-11-19T07:00:00;100660.0;;;13.7;79.0
67345;BME280;54230;52.402;6.276;2023-11-19T07:05:00;100660.0;;;13.8;78.7
67345;BME280;54230;52.402;6.276;2023-11-19T07:10:00;100670.0;;;13.8;78.5
67345;BME280;54230;52.402;6.276;2023-11-19T07:15:00;100670.0;;;13.7;78.4
67345;BME280;54230;52.402;6.276;2023-11-19T07:20:00;100670.0;;;13.6;78.4
67345;BME280;54230;52.402;6.276;2023-11-19T07:25:00;100680.0;;;13.6;78.4
67345;BME280;54230;52.402;6.276;2023-11-19T07:30:00;100690.0;;;13.5;78.6
67345;BME280;54230;52.402;6.276;2023-11-19T07:35:00;100690.0;;;13.6;78.6
67345;BME280;54230;52.402;6.276;2023-11-19T07:40:00;100700.0;;;13.6;78.6
67345;BME280;54230;52.402;6.276;2023-11-19T07:45:00;100690.0;;;13.6;78.5
67345;BME280;54230;52.402;6.276;2023-11-19T07:50:00;100700.0;;;13.7;78.6
67345;BME280;54230;52.402;6.276;2023-11-19T07:55:00;100710.0;;;13.8;78.4
67345;BME280;54230;52.402;6.276;2023-11-19T08:00:00;100710.0;;;13.8;78.1
67345;BME280;54230;52.402;6.276;2023-11-19T08:05:00;100720.0;;;13.9;78.0
67345;BME280;54230;52.402;6.276;2023-11-19T08:10:00;100720.0;;;13.9;77.9
67345;BME280;54230;52.402;6.276;2023-11-19T08:15:00;100720.0;;;13.9;77.8
67345;BME280;54230;52.402;6.276;2023-11-19T08:20:00;100720.0;;;13.9;77.6
67345;BME280;54230;52.402;6.276;2023-11-19T08:25:00;100730.0;;;13.9;77.4
67345;BME280;54230;52.402;6.276;2023-11-19T08:30:00;100720.0;;;14.0;77.2
67345;BME280;54230;52.402;6.276;2023-11-19T08:35:00;100710.0;;;14.1;77.1
67345;BME280;54230;52.402;6.276;2023-11-19T08:40:00;100710.0;;;14.0;76.8
67345;BME280;54230;52.402;6.276;2023-11-19T08:45:00;100700.0;;;14.1;76.6
67345;BME280;54230;52.402;6.276;2023-11-19T08:50:00;100700.0;;;14.1;76.3
67345;BME280;54230;52.402;6.276;2023-11-19T08:55:00;100700.0;;;14.0;76.3
67345;BME280;54230;52.402;6.276;2023-11-19T09:00:00;100700.0;;;14.0;76.4
67345;BME280;54230;52.402;6.276;2023-11-19T09:05:00;100700.0;;;14.0;76.3
67345;BME280;54230;52.402;6.276;2023-11-19T09:10:00;100720.0;;;13.9;76.3
67345;BME280;54230;52.402;6.276;2023-11-19T09:15:00;100710.0;;;14.0;76.1
67345;BME280;54230;52.402;6.276;2023-11-19T09:20:00;100720.0;;;14.1;76.0
67345;BME280;54230;52.402;6.276;2023-11-19T09:25:00;100710.0;;;14.2;76.0
67345;BME280;54230;52.402;6.276;2023-11-19T09:30:00;100720.0;;;14.4;76.1
67345;BME280;54230;52.402;6.276;2023-11-19T09:35:00;100710.0;;;14.5;75.8
67345;BME280;54230;52.402;6.276;2023-11-19T09:40:00;100710.0;;;14.6;75.6
67345;BME280;54230;52.402;6.276;2023-11-19T09:45:02;100710.0;;;14.6;75.2
67345;BME280;54230;52.402;6.276;2023-11-19T09:50:00;100720.0;;;14.7;75.1
67345;BME280;54230;52.402;6.276;2023-11-19T09:55:00;100710.0;;;14.6;75.0
67345;BME280;54230;52.402;6.276;2023-11-19T10:00:01;100710.0;;;14.8;74.8
67345;BME280;54230;52.402;6.276;2023-11-19T10:05:04;100710.0;;;15.0;74.4
67345;BME280;54230;52.402;6.276;2023-11-19T10:10:00;100700.0;;;15.1;73.9
67345;BME280;54230;52.402;6.276;2023-11-19T10:15:01;100700.0;;;15.1;73.4
67345;BME280;54230;52.402;6.276;2023-11-19T10:20:00;100700.0;;;15.1;73.3
67345;BME280;54230;52.402;6.276;2023-11-19T10:25:00;100700.0;;;15.2;72.7
67345;BME280;54230;52.402;6.276;2023-11-19T10:30:00;100700.0;;;15.3;72.4
67345;BME280;54230;52.402;6.276;2023-11-19T10:35:04;100690.0;;;15.2;72.5
67345;BME280;54230;52.402;6.276;2023-11-19T10:40:00;100690.0;;;15.2;72.4
67345;BME280;54230;52.402;6.276;2023-11-19T10:45:00;100690.0;;;15.3;72.4
67345;BME280;54230;52.402;6.276;2023-11-19T10:50:00;100690.0;;;15.4;71.9
67345;BME280;54230;52.402;6.276;2023-11-19T10:55:02;100680.0;;;15.4;71.8
67345;BME280;54230;52.402;6.276;2023-11-19T11:00:02;100690.0;;;15.4;71.7
67345;BME280;54230;52.402;6.276;2023-11-19T11:05:01;100680.0;;;15.4;71.6
67345;BME280;54230;52.402;6.276;2023-11-19T11:10:01;100690.0;;;15.3;71.4
67345;BME280;54230;52.402;6.276;2023-11-19T11:15:00;100690.0;;;15.2;71.4
67345;BME280;54230;52.402;6.276;2023-11-19T11:20:00;100680.0;;;15.3;71.7
67345;BME280;54230;52.402;6.276;2023-11-19T11:25:08;100670.0;;;15.4;71.5
67345;BME280;54230;52.402;6.276;2023-11-19T11:30:06;100670.0;;;15.4;71.0
67345;BME280;54230;52.402;6.276;2023-11-19T11:35:23;100660.0;;;15.3;71.0
67345;BME280;54230;52.402;6.276;2023-11-19T11:40:01;100660.0;;;15.2;71.0
67345;BME280;54230;52.402;6.276;2023-11-19T11:45:02;100660.0;;;15.3;70.7
67345;BME280;54230;52.402;6.276;2023-11-19T11:50:05;100670.0;;;15.2;71.3
67345;BME280;54230;52.402;6.276;2023-11-19T11:55:04;100670.0;;;15.2;72.6
67345;BME280;54230;52.402;6.276;2023-11-19T12:00:02;100670.0;;;15.3;72.0
67345;BME280;54230;52.402;6.276;2023-11-19T12:05:00;100660.0;;;15.3;71.6
67345;BME280;54230;52.402;6.276;2023-11-19T12:10:06;100670.0;;;15.3;71.1
67345;BME280;54230;52.402;6.276;2023-11-19T12:15:03;100670.0;;;15.4;71.2
67345;BME280;54230;52.402;6.276;2023-11-19T12:20:00;100660.0;;;15.6;70.9
67345;BME280;54230;52.402;6.276;2023-11-19T12:25:01;100650.0;;;15.6;70.9
67345;BME280;54230;52.402;6.276;2023-11-19T12:30:00;100650.0;;;15.7;70.7
67345;BME280;54230;52.402;6.276;2023-11-19T12:35:00;100650.0;;;15.7;70.3
67345;BME280;54230;52.402;6.276;2023-11-19T12:40:00;100650.0;;;15.6;70.4
67345;BME280;54230;52.402;6.276;2023-11-19T12:45:00;100650.0;;;15.6;70.1
67345;BME280;54230;52.402;6.276;2023-11-19T12:50:00;100650.0;;;15.8;69.7
67345;BME280;54230;52.402;6.276;2023-11-19T12:55:01;100650.0;;;15.8;69.3
67345;BME280;54230;52.402;6.276;2023-11-19T13:00:00;100650.0;;;15.8;69.0
67345;BME280;54230;52.402;6.276;2023-11-19T13:05:22;100650.0;;;15.9;68.8
67345;BME280;54230;52.402;6.276;2023-11-19T13:10:01;100650.0;;;15.8;68.6
67345;BME280;54230;52.402;6.276;2023-11-19T13:15:00;100650.0;;;15.7;68.9
67345;BME280;54230;52.402;6.276;2023-11-19T13:20:00;100640.0;;;15.7;69.2
67345;BME280;54230;52.402;6.276;2023-11-19T13:25:00;100650.0;;;15.3;70.8
67345;BME280;54230;52.402;6.276;2023-11-19T13:30:04;100650.0;;;14.9;73.0
67345;BME280;54230;52.402;6.276;2023-11-19T13:35:00;100650.0;;;14.8;74.6
67345;BME280;54230;52.402;6.276;2023-11-19T13:40:00;100620.0;;;14.6;75.7
67345;BME280;54230;52.402;6.276;2023-11-19T13:45:00;100630.0;;;14.6;76.9
67345;BME280;54230;52.402;6.276;2023-11-19T13:50:00;100630.0;;;14.6;77.5
67345;BME280;54230;52.402;6.276;2023-11-19T13:55:00;100640.0;;;14.7;78.0
67345;BME280;54230;52.402;6.276;2023-11-19T14:00:00;100630.0;;;14.6;78.1
67345;BME280;54230;52.402;6.276;2023-11-19T14:05:00;100630.0;;;14.6;78.3
67345;BME280;54230;52.402;6.276;2023-11-19T14:10:00;100620.0;;;14.6;78.2
67345;BME280;54230;52.402;6.276;2023-11-19T14:15:00;100630.0;;;14.8;77.7
67345;BME280;54230;52.402;6.276;2023-11-19T14:20:00;100630.0;;;14.8;76.8
67345;BME280;54230;52.402;6.276;2023-11-19T14:25:00;100630.0;;;14.7;75.4
67345;BME280;54230;52.402;6.276;2023-11-19T14:30:00;100630.0;;;14.6;75.2
67345;BME280;54230;52.402;6.276;2023-11-19T14:35:00;100630.0;;;14.6;74.8
67345;BME280;54230;52.402;6.276;2023-11-19T14:40:00;100640.0;;;14.5;74.9
67345;BME280;54230;52.402;6.276;2023-11-19T14:45:00;100630.0;;;14.6;74.9
67345;BME280;54230;52.402;6.276;2023-11-19T14:50:00;100630.0;;;14.5;75.2
67345;BME280;54230;52.402;6.276;2023-11-19T14:55:00;100630.0;;;14.5;75.1
67345;BME280;54230;52.402;6.276;2023-11-19T15:00:00;100630.0;;;14.4;75.3
67345;BME280;54230;52.402;6.276;2023-11-19T15:05:00;100630.0;;;14.4;75.2
67345;BME280;54230;52.402;6.276;2023-11-19T15:10:00;100640.0;;;14.4;75.5
67345;BME280;54230;52.402;6.276;2023-11-19T15:15:00;100640.0;;;14.4;75.4
67345;BME280;54230;52.402;6.276;2023-11-19T15:20:00;100640.0;;;14.4;75.5
67345;BME280;54230;52.402;6.276;2023-11-19T15:25:00;100640.0;;;14.3;75.8
67345;BME280;54230;52.402;6.276;2023-11-19T15:30:00;100640.0;;;14.3;76.0
67345;BME280;54230;52.402;6.276;2023-11-19T15:35:00;100640.0;;;14.6;76.2
67345;BME280;54230;52.402;6.276;2023-11-19T15:40:00;100640.0;;;14.8;76.2
67345;BME280;54230;52.402;6.276;2023-11-19T15:45:01;100640.0;;;14.8;75.8
67345;BME280;54230;52.402;6.276;2023-11-19T15:50:01;100630.0;;;14.8;76.0
67345;BME280;54230;52.402;6.276;2023-11-19T15:55:00;100630.0;;;14.8;76.2
67345;BME280;54230;52.402;6.276;2023-11-19T16:00:00;100620.0;;;14.7;76.5
67345;BME280;54230;52.402;6.276;2023-11-19T16:05:00;100620.0;;;14.7;76.4
67345;BME280;54230;52.402;6.276;2023-11-19T16:10:00;100620.0;;;14.7;76.2
67345;BME280;54230;52.402;6.276;2023-11-19T16:15:00;100620.0;;;14.7;75.9
67345;BME280;54230;52.402;6.276;2023-11-19T16:20:00;100620.0;;;14.7;75.5
67345;BME280;54230;52.402;6.276;2023-11-19T16:25:00;100620.0;;;14.6;75.7
67345;BME280;54230;52.402;6.276;2023-11-19T16:30:00;100620.0;;;14.6;75.6
67345;BME280;54230;52.402;6.276;2023-11-19T16:35:00;100620.0;;;14.6;75.0
67345;BME280;54230;52.402;6.276;2023-11-19T16:40:00;100630.0;;;14.6;75.1
67345;BME280;54230;52.402;6.276;2023-11-19T16:45:00;100620.0;;;14.6;74.8
67345;BME280;54230;52.402;6.276;2023-11-19T16:50:00;100630.0;;;14.6;74.7
67345;BME280;54230;52.402;6.276;2023-11-19T16:55:00;100620.0;;;14.3;75.5
67345;BME280;54230;52.402;6.276;2023-11-19T17:00:00;100630.0;;;14.3;76.5
67345;BME280;54230;52.402;6.276;2023-11-19T17:05:00;100630.0;;;14.3;77.4
67345;BME280;54230;52.402;6.276;2023-11-19T17:10:00;100630.0;;;14.3;77.7
67345;BME280;54230;52.402;6.276;2023-11-19T17:15:00;100620.0;;;14.4;77.4
67345;BME280;54230;52.402;6.276;2023-11-19T17:20:01;100630.0;;;14.3;76.9
67345;BME280;54230;52.402;6.276;2023-11-19T17:25:01;100630.0;;;14.3;77.1
67345;BME280;54230;52.402;6.276;2023-11-19T17:30:00;100620.0;;;14.2;76.9
67345;BME280;54230;52.402;6.276;2023-11-19T17:35:00;100620.0;;;14.1;77.2
67345;BME280;54230;52.402;6.276;2023-11-19T17:40:00;100620.0;;;14.0;77.5
67345;BME280;54230;52.402;6.276;2023-11-19T17:45:00;100620.0;;;14.0;77.7
67345;BME280;54230;52.402;6.276;2023-11-19T17:50:00;100620.0;;;13.9;78.3
67345;BME280;54230;52.402;6.276;2023-11-19T17:55:00;100610.0;;;13.9;78.6
67345;BME280;54230;52.402;6.276;2023-11-19T18:00:00;100600.0;;;13.9;78.9
67345;BME280;54230;52.402;6.276;2023-11-19T18:05:00;100600.0;;;13.9;78.9
67345;BME280;54230;52.402;6.276;2023-11-19T18:10:00;100590.0;;;13.8;79.4
67345;BME280;54230;52.402;6.276;2023-11-19T18:15:00;100590.0;;;13.8;79.8
67345;BME280;54230;52.402;6.276;2023-11-19T18:20:00;100590.0;;;13.7;80.3
67345;BME280;54230;52.402;6.276;2023-11-19T18:25:00;100590.0;;;13.8;80.8
67345;BME280;54230;52.402;6.276;2023-11-19T18:30:00;100580.0;;;13.7;81.3
67345;BME280;54230;52.402;6.276;2023-11-19T18:35:00;100580.0;;;13.7;81.8
67345;BME280;54230;52.402;6.276;2023-11-19T18:40:00;100570.0;;;13.6;82.0
67345;BME280;54230;52.402;6.276;2023-11-19T18:45:00;100570.0;;;13.6;82.7
67345;BME280;54230;52.402;6.276;2023-11-19T18:50:00;100560.0;;;13.6;83.0
67345;BME280;54230;52.402;6.276;2023-11-19T18:55:00;100560.0;;;13.6;83.2
67345;BME280;54230;52.402;6.276;2023-11-19T19:00:00;100560.0;;;13.6;83.3
67345;BME280;54230;52.402;6.276;2023-11-19T19:05:00;100560.0;;;13.6;83.3
67345;BME280;54230;52.402;6.276;2023-11-19T19:10:00;100560.0;;;13.7;83.3
67345;BME280;54230;52.402;6.276;2023-11-19T19:15:00;100550.0;;;13.7;83.4
67345;BME280;54230;52.402;6.276;2023-11-19T19:20:00;100550.0;;;13.7;83.6
67345;BME280;54230;52.402;6.276;2023-11-19T19:25:00;100550.0;;;13.7;83.9
67345;BME280;54230;52.402;6.276;2023-11-19T19:30:00;100550.0;;;13.7;84.1
67345;BME280;54230;52.402;6.276;2023-11-19T19:35:00;100550.0;;;13.5;84.7
67345;BME280;54230;52.402;6.276;2023-11-19T19:40:00;100540.0;;;13.5;85.0
67345;BME280;54230;52.402;6.276;2023-11-19T19:45:00;100530.0;;;13.5;85.3
67345;BME280;54230;52.402;6.276;2023-11-19T19:50:00;100530.0;;;13.6;85.3
67345;BME280;54230;52.402;6.276;2023-11-19T19:55:00;100530.0;;;13.6;85.5
67345;BME280;54230;52.402;6.276;2023-11-19T20:00:00;100520.0;;;13.6;85.5
67345;BME280;54230;52.402;6.276;2023-11-19T20:05:00;100520.0;;;13.6;85.8
67345;BME280;54230;52.402;6.276;2023-11-19T20:10:00;100520.0;;;13.6;85.7
67345;BME280;54230;52.402;6.276;2023-11-19T20:15:00;100520.0;;;13.6;85.9
67345;BME280;54230;52.402;6.276;2023-11-19T20:20:01;100520.0;;;13.6;85.7
67345;BME280;54230;52.402;6.276;2023-11-19T20:25:00;100520.0;;;13.6;85.9
67345;BME280;54230;52.402;6.276;2023-11-19T20:30:00;100520.0;;;13.7;86.2
67345;BME280;54230;52.402;6.276;2023-11-19T20:35:00;100520.0;;;13.7;86.1
67345;BME280;54230;52.402;6.276;2023-11-19T20:40:00;100530.0;;;13.6;86.3
67345;BME280;54230;52.402;6.276;2023-11-19T20:45:00;100530.0;;;13.6;86.6
67345;BME280;54230;52.402;6.276;2023-11-19T20:50:00;100530.0;;;13.5;87.1
67345;BME280;54230;52.402;6.276;2023-11-19T20:55:00;100530.0;;;13.5;87.2
67345;BME280;54230;52.402;6.276;2023-11-19T21:00:00;100540.0;;;13.5;87.4
67345;BME280;54230;52.402;6.276;2023-11-19T21:05:00;100530.0;;;13.5;87.3
67345;BME280;54230;52.402;6.276;2023-11-19T21:10:00;100540.0;;;13.5;87.5
67345;BME280;54230;52.402;6.276;2023-11-19T21:15:00;100540.0;;;13.6;87.8
67345;BME280;54230;52.402;6.276;2023-11-19T21:20:00;100540.0;;;13.5;87.8
67345;BME280;54230;52.402;6.276;2023-11-19T21:25:00;100550.0;;;13.6;87.8
67345;BME280;54230;52.402;6.276;2023-11-19T21:30:00;100550.0;;;13.7;87.6
67345;BME280;54230;52.402;6.276;2023-11-19T21:35:00;100550.0;;;13.7;87.6
67345;BME280;54230;52.402;6.276;2023-11-19T21:40:00;100550.0;;;13.7;87.9
67345;BME280;54230;52.402;6.276;2023-11-19T21:45:00;100550.0;;;13.8;87.9
67345;BME280;54230;52.402;6.276;2023-11-19T21:50:00;100550.0;;;13.8;88.0
67345;BME280;54230;52.402;6.276;2023-11-19T21:55:00;100550.0;;;13.8;88.1
67345;BME280;54230;52.402;6.276;2023-11-19T22:00:00;100550.0;;;13.8;88.1
67345;BME280;54230;52.402;6.276;2023-11-19T22:05:00;100550.0;;;13.9;88.1
67345;BME280;54230;52.402;6.276;2023-11-19T22:10:00;100550.0;;;13.9;88.1
67345;BME280;54230;52.402;6.276;2023-11-19T22:15:00;100550.0;;;13.9;88.0
67345;BME280;54230;52.402;6.276;2023-11-19T22:20:00;100550.0;;;13.9;87.9
67345;BME280;54230;52.402;6.276;2023-11-19T22:25:00;100560.0;;;13.9;88.1
67345;BME280;54230;52.402;6.276;2023-11-19T22:30:00;100560.0;;;13.9;88.1
67345;BME280;54230;52.402;6.276;2023-11-19T22:35:00;100560.0;;;14.0;88.1
67345;BME280;54230;52.402;6.276;2023-11-19T22:40:00;100560.0;;;13.9;88.0
67345;BME280;54230;52.402;6.276;2023-11-19T22:45:00;100560.0;;;13.9;88.2
67345;BME280;54230;52.402;6.276;2023-11-19T22:50:00;100560.0;;;13.9;88.2
67345;BME280;54230;52.402;6.276;2023-11-19T22:55:00;100560.0;;;14.0;88.2
67345;BME280;54230;52.402;6.276;2023-11-19T23:00:00;100570.0;;;14.0;88.0
67345;BME280;54230;52.402;6.276;2023-11-19T23:05:00;100570.0;;;13.9;88.1
67345;BME280;54230;52.402;6.276;2023-11-19T23:10:00;100570.0;;;13.9;88.2
67345;BME280;54230;52.402;6.276;2023-11-19T23:15:00;100580.0;;;13.9;88.2
67345;BME280;54230;52.402;6.276;2023-11-19T23:20:02;100580.0;;;13.9;88.1
67345;BME280;54230;52.402;6.276;2023-11-19T23:25:00;100590.0;;;13.9;88.2
67345;BME280;54230;52.402;6.276;2023-11-19T23:30:00;100590.0;;;13.9;88.1
67345;BME280;54230;52.402;6.276;2023-11-19T23:35:00;100590.0;;;13.9;88.3
67345;BME280;54230;52.402;6.276;2023-11-19T23:40:00;100600.0;;;13.9;88.2
67345;BME280;54230;52.402;6.276;2023-11-19T23:45:00;100590.0;;;13.8;88.2
67345;BME280;54230;52.402;6.276;2023-11-19T23:50:00;100600.0;;;13.8;88.1
67345;BME280;54230;52.402;6.276;2023-11-19T23:55:00;100590.0;;;13.8;88.4
